Terminal Aerodrome Forecast
Issued by NWS

Home | Current Version | Previous Version | Text Only | Print | Product List | Glossary On
Versions: 1 2 3 4 5 6 7 8 9 10 11 12 13
000
FTUS45 KFGZ 011700
TAFGCN
TAF
KGCN 011720Z 0118/0218 27017G26KT P6SM SCT250
     FM020200 22010KT P6SM SCT250
     FM021500 22015G25KT P6SM SCT250=

USA.gov is the U.S. government's official web portal to all federal, state and local government web resources and services.